Time;durP1;ratioP1;P1;durP2;ratioP2;P2;SDS_P1;SDS_P2;PMS_P1;PMS_P2;Temp;Humidity;BMP_temperature;BMP_pressure;BME280_temperature;BME280_humidity;BME280_pressure;Samples;Min_cycle;Max_cycle;Signal;HPM_P1;HPM_P2
2022/01/07 00:00:52;;;;;;;33.73;12.00;;;-1.20;99.90;;;;;;4994540;28;20089;-66
2022/01/07 00:03:22;;;;;;;24.70;12.30;;;-1.20;99.90;;;;;;4994657;28;20144;-66
2022/01/07 00:05:49;;;;;;;25.00;10.60;;;-1.30;99.90;;;;;;4994159;28;20058;-66
2022/01/07 00:08:16;;;;;;;32.00;11.83;;;-1.20;99.90;;;;;;4993193;28;20398;-66
2022/01/07 00:10:43;;;;;;;25.60;10.23;;;-1.20;99.90;;;;;;4994593;28;20137;-66
2022/01/07 00:13:11;;;;;;;25.13;10.37;;;-1.20;99.90;;;;;;4994475;28;20150;-66
2022/01/07 00:15:39;;;;;;;31.10;11.23;;;-1.20;99.90;;;;;;4994557;28;20058;-66
2022/01/07 00:18:06;;;;;;;23.80;11.23;;;-1.10;99.90;;;;;;4994168;28;20141;-66
2022/01/07 00:20:33;;;;;;;27.93;11.83;;;-1.00;99.90;;;;;;4994020;28;20141;-66
2022/01/07 00:23:01;;;;;;;28.60;11.77;;;-1.10;99.90;;;;;;4994341;28;20141;-66
2022/01/07 00:25:28;;;;;;;33.70;11.90;;;-1.20;99.90;;;;;;4993903;28;20109;-66
2022/01/07 00:27:54;;;;;;;26.20;11.40;;;-1.20;99.90;;;;;;4994267;28;20137;-66
2022/01/07 00:30:22;;;;;;;28.47;11.97;;;-1.20;99.90;;;;;;4994187;28;20137;-66
2022/01/07 00:32:51;;;;;;;24.80;11.30;;;-1.20;99.90;;;;;;4993944;28;20138;-66
2022/01/07 00:35:31;;;;;;;33.63;13.27;;;-1.20;99.90;;;;;;4993637;28;20494;-66
2022/01/07 00:37:58;;;;;;;29.07;10.23;;;-1.20;99.90;;;;;;4994087;28;20130;-66
2022/01/07 00:40:26;;;;;;;28.03;12.37;;;-1.20;99.90;;;;;;4994004;28;20513;-66
2022/01/07 00:42:55;;;;;;;33.67;11.73;;;-1.20;99.90;;;;;;4993608;28;20130;-66
2022/01/07 00:45:23;;;;;;;28.40;11.50;;;-1.20;99.90;;;;;;4993438;28;20149;-66
2022/01/07 00:47:52;;;;;;;31.00;11.60;;;-1.20;99.90;;;;;;4993756;28;20464;-65
2022/01/07 00:50:21;;;;;;;34.80;12.43;;;-1.10;99.90;;;;;;4994381;28;20050;-66
2022/01/07 00:52:48;;;;;;;28.27;12.00;;;-1.10;99.90;;;;;;4993695;28;20129;-66
2022/01/07 00:55:15;;;;;;;25.83;11.77;;;-1.10;99.90;;;;;;4993618;28;20272;-66
2022/01/07 00:57:42;;;;;;;32.03;12.17;;;-1.10;99.90;;;;;;4993601;28;20085;-65
2022/01/07 01:00:12;;;;;;;38.13;11.57;;;-1.20;99.90;;;;;;4993646;28;20475;-65
2022/01/07 01:02:40;;;;;;;30.47;11.77;;;-1.30;99.90;;;;;;4993388;28;20594;-66
2022/01/07 01:05:11;;;;;;;30.00;12.00;;;-1.30;99.90;;;;;;4993342;28;20086;-66
2022/01/07 01:07:38;;;;;;;26.37;11.67;;;-1.30;99.90;;;;;;4993923;28;20081;-65
2022/01/07 01:10:07;;;;;;;30.07;12.07;;;-1.30;99.90;;;;;;4993322;28;20071;-66
2022/01/07 01:12:34;;;;;;;28.33;12.27;;;-1.30;99.90;;;;;;4993267;28;20060;-67
2022/01/07 01:15:01;;;;;;;36.47;12.63;;;-1.30;99.90;;;;;;4993334;28;20499;-66
2022/01/07 01:17:28;;;;;;;31.00;11.63;;;-1.30;99.90;;;;;;4985179;28;20148;-68
2022/01/07 01:19:55;;;;;;;28.03;10.80;;;-1.30;99.90;;;;;;4992797;28;20133;-67
2022/01/07 01:22:23;;;;;;;32.93;12.37;;;-1.30;99.90;;;;;;4992949;28;20443;-67
2022/01/07 01:24:50;;;;;;;28.83;11.20;;;-1.30;99.90;;;;;;4993157;28;20444;-67
2022/01/07 01:27:17;;;;;;;34.23;10.77;;;-1.20;99.90;;;;;;4993068;28;20518;-66
2022/01/07 01:29:44;;;;;;;28.73;11.97;;;-1.30;99.90;;;;;;4993080;28;20132;-67
2022/01/07 01:32:11;;;;;;;38.17;13.47;;;-1.30;99.90;;;;;;4993108;28;20430;-67
2022/01/07 01:34:38;;;;;;;26.73;11.17;;;-1.30;99.90;;;;;;4992723;28;20054;-67
2022/01/07 01:37:06;;;;;;;33.43;12.67;;;-1.30;99.90;;;;;;4992825;28;20050;-66
2022/01/07 01:39:34;;;;;;;25.90;11.60;;;-1.40;99.90;;;;;;4992678;28;20518;-67
2022/01/07 01:42:01;;;;;;;32.73;13.13;;;-1.30;99.90;;;;;;4992576;28;20478;-66
2022/01/07 01:44:28;;;;;;;37.50;12.47;;;-1.30;99.90;;;;;;4992616;28;20563;-67
2022/01/07 01:46:56;;;;;;;34.30;11.30;;;-1.30;99.90;;;;;;4992644;28;20116;-67
2022/01/07 01:49:23;;;;;;;27.03;11.83;;;-1.30;99.90;;;;;;4992835;28;20058;-66
2022/01/07 01:51:50;;;;;;;28.47;12.20;;;-1.30;99.90;;;;;;4992500;28;20061;-67
2022/01/07 01:54:18;;;;;;;33.97;12.07;;;-1.30;99.90;;;;;;4992744;28;20566;-67
2022/01/07 01:56:46;;;;;;;32.90;12.97;;;-1.30;99.90;;;;;;4992260;28;20086;-67
2022/01/07 01:59:13;;;;;;;27.80;11.37;;;-1.30;99.90;;;;;;4992898;28;20110;-68
2022/01/07 02:01:40;;;;;;;35.27;11.73;;;-1.30;99.90;;;;;;4992574;28;20089;-66
2022/01/07 02:04:07;;;;;;;24.03;11.37;;;-1.30;99.90;;;;;;4992267;28;20050;-68
2022/01/07 02:06:36;;;;;;;34.77;12.07;;;-1.30;99.90;;;;;;4992045;28;20133;-67
2022/01/07 02:09:03;;;;;;;33.17;11.77;;;-1.30;99.90;;;;;;4992353;28;20065;-66
2022/01/07 02:11:31;;;;;;;32.17;11.60;;;-1.40;99.90;;;;;;4992117;28;20047;-68
2022/01/07 02:13:59;;;;;;;33.17;11.70;;;-1.40;99.90;;;;;;4992170;28;20110;-67
2022/01/07 02:16:27;;;;;;;31.27;11.87;;;-1.30;99.90;;;;;;4992003;28;20096;-67
2022/01/07 02:18:54;;;;;;;31.47;11.83;;;-1.30;99.90;;;;;;4992097;28;20137;-66
2022/01/07 02:21:24;;;;;;;32.20;11.43;;;-1.30;99.90;;;;;;4992038;28;20054;-66
2022/01/07 02:23:51;;;;;;;27.87;11.17;;;-1.30;99.90;;;;;;4992255;28;20058;-67
2022/01/07 02:26:19;;;;;;;26.37;11.27;;;-1.30;99.90;;;;;;4991999;28;20141;-67
2022/01/07 02:28:49;;;;;;;30.07;11.87;;;-1.30;99.90;;;;;;4992403;28;20133;-67
2022/01/07 02:31:16;;;;;;;28.57;11.60;;;-1.30;99.90;;;;;;4994142;28;20085;-65
2022/01/07 02:33:43;;;;;;;32.33;11.83;;;-1.40;99.90;;;;;;4996372;28;20089;-67
2022/01/07 02:36:11;;;;;;;27.77;12.57;;;-1.40;99.90;;;;;;4996123;28;20054;-64
2022/01/07 02:38:39;;;;;;;30.67;12.40;;;-1.40;99.90;;;;;;4995963;28;20133;-65
2022/01/07 02:41:06;;;;;;;36.13;13.60;;;-1.40;99.90;;;;;;4996001;28;20569;-65
2022/01/07 02:43:33;;;;;;;32.10;12.10;;;-1.40;99.90;;;;;;4995918;28;20585;-65
2022/01/07 02:46:00;;;;;;;30.37;12.80;;;-1.40;99.90;;;;;;4995553;28;20598;-65
2022/01/07 02:48:27;;;;;;;28.50;11.67;;;-1.40;99.90;;;;;;4987754;28;20137;-65
2022/01/07 02:50:54;;;;;;;34.27;12.30;;;-1.30;99.90;;;;;;4995875;28;20081;-65
2022/01/07 02:53:21;;;;;;;31.97;11.70;;;-1.30;99.90;;;;;;4995699;28;20506;-65
2022/01/07 02:55:50;;;;;;;29.10;11.70;;;-1.30;99.90;;;;;;4995475;28;20418;-65
2022/01/07 02:58:17;;;;;;;34.80;11.50;;;-1.20;99.90;;;;;;4995777;28;20054;-65
2022/01/07 03:00:44;;;;;;;30.63;11.57;;;-1.20;99.90;;;;;;4995602;28;20050;-65
2022/01/07 03:03:11;;;;;;;28.00;11.43;;;-1.10;99.90;;;;;;4995650;28;20415;-65
2022/01/07 03:05:41;;;;;;;27.37;11.20;;;-1.10;99.90;;;;;;4995282;28;20594;-67
2022/01/07 03:08:09;;;;;;;32.53;11.50;;;-1.00;99.90;;;;;;4995880;28;20054;-66
2022/01/07 03:10:37;;;;;;;26.33;11.17;;;-1.00;99.90;;;;;;4995528;28;20677;-67
2022/01/07 03:13:06;;;;;;;37.33;11.67;;;-1.00;99.90;;;;;;4995781;28;20136;-66
2022/01/07 03:15:36;;;;;;;37.30;10.47;;;-1.10;99.90;;;;;;4995450;28;20728;-66
2022/01/07 03:18:04;;;;;;;31.43;11.90;;;-1.10;99.90;;;;;;4995547;28;20105;-67
2022/01/07 03:20:37;;;;;;;25.13;10.90;;;-1.10;99.90;;;;;;4996104;28;20836;-66
2022/01/07 03:23:06;;;;;;;29.63;11.90;;;-1.20;99.90;;;;;;4995481;28;20442;-67
2022/01/07 03:25:33;;;;;;;27.80;10.83;;;-1.10;99.90;;;;;;4994902;28;20569;-67
2022/01/07 03:28:00;;;;;;;35.10;11.07;;;-1.20;99.90;;;;;;4995267;28;20514;-68
2022/01/07 03:30:28;;;;;;;26.40;10.40;;;-1.20;99.90;;;;;;4995014;28;20148;-67
2022/01/07 03:32:55;;;;;;;29.47;11.10;;;-1.20;99.90;;;;;;4995028;28;20058;-67
2022/01/07 03:35:22;;;;;;;25.47;10.00;;;-1.20;99.90;;;;;;4994677;28;20137;-68
2022/01/07 03:37:50;;;;;;;26.80;10.83;;;-1.20;99.90;;;;;;4995321;28;20464;-67
2022/01/07 03:40:20;;;;;;;30.27;11.57;;;-1.20;99.90;;;;;;5007806;23;20132;-69
2022/01/07 03:42:48;;;;;;;25.37;10.23;;;-1.10;99.90;;;;;;4994893;28;20141;-69
2022/01/07 03:45:15;;;;;;;32.43;10.93;;;-1.00;99.90;;;;;;4994863;28;20205;-69
2022/01/07 03:47:45;;;;;;;28.77;11.13;;;-1.10;99.90;;;;;;4995190;28;20129;-69
2022/01/07 03:50:14;;;;;;;26.57;10.90;;;-1.10;99.90;;;;;;4994860;28;20084;-69
2022/01/07 03:52:41;;;;;;;24.90;10.47;;;-1.10;99.90;;;;;;4994851;28;20425;-69
2022/01/07 03:55:12;;;;;;;24.50;9.73;;;-1.10;99.90;;;;;;4994577;28;20133;-69
2022/01/07 03:57:39;;;;;;;31.63;11.00;;;-1.10;99.90;;;;;;4994638;28;20093;-69
2022/01/07 04:00:08;;;;;;;28.63;11.87;;;-1.10;99.90;;;;;;4994685;28;20125;-69
2022/01/07 04:02:35;;;;;;;33.43;10.47;;;-1.00;99.90;;;;;;4994813;28;20129;-69
2022/01/07 04:05:04;;;;;;;25.93;10.63;;;-1.10;99.90;;;;;;4994787;28;20129;-69
2022/01/07 04:07:31;;;;;;;27.53;10.70;;;-1.10;99.90;;;;;;4994791;28;20141;-69
2022/01/07 04:09:59;;;;;;;31.80;11.53;;;-1.10;99.90;;;;;;4995197;28;20042;-69
2022/01/07 04:12:26;;;;;;;32.23;10.87;;;-1.20;99.90;;;;;;4995198;28;20137;-69
2022/01/07 04:15:04;;;;;;;27.23;10.73;;;-1.30;99.90;;;;;;4994604;28;20089;-69
2022/01/07 04:17:31;;;;;;;33.53;12.57;;;-1.30;99.90;;;;;;4994727;28;20060;-69
2022/01/07 04:19:58;;;;;;;21.73;10.37;;;-1.30;99.90;;;;;;4994436;28;20142;-69
2022/01/07 04:22:26;;;;;;;28.70;10.93;;;-1.30;99.90;;;;;;4993938;28;20145;-69
2022/01/07 04:24:53;;;;;;;26.80;10.57;;;-1.30;99.90;;;;;;4994252;28;20149;-69
2022/01/07 04:27:20;;;;;;;28.10;10.10;;;-1.30;99.90;;;;;;4994217;28;20412;-69
2022/01/07 04:29:47;;;;;;;27.43;11.73;;;-1.20;99.90;;;;;;4994231;28;20144;-69
2022/01/07 04:32:14;;;;;;;33.27;11.10;;;-1.20;99.90;;;;;;4993929;28;20218;-69
2022/01/07 04:34:40;;;;;;;36.33;11.80;;;-1.10;99.90;;;;;;4993877;28;20065;-69
2022/01/07 04:37:07;;;;;;;29.00;11.23;;;-1.00;99.90;;;;;;4993848;28;20129;-69
2022/01/07 04:39:36;;;;;;;32.60;10.63;;;-1.10;99.90;;;;;;4993876;28;20081;-69
2022/01/07 04:42:03;;;;;;;27.60;11.17;;;-1.00;99.90;;;;;;4993806;28;20093;-69
2022/01/07 04:44:30;;;;;;;27.23;10.90;;;-1.10;99.90;;;;;;4993773;28;20093;-69
2022/01/07 04:46:57;;;;;;;30.47;10.60;;;-1.10;99.90;;;;;;4993754;28;20054;-69
2022/01/07 04:49:24;;;;;;;28.60;11.57;;;-1.00;99.90;;;;;;4993552;28;20594;-69
2022/01/07 04:51:50;;;;;;;35.30;12.80;;;-1.00;99.90;;;;;;4993727;28;20141;-69
2022/01/07 04:54:17;;;;;;;22.03;9.77;;;-1.00;99.90;;;;;;4993044;28;20145;-69
2022/01/07 04:56:46;;;;;;;29.73;11.03;;;-1.10;99.90;;;;;;4993456;28;20085;-69
2022/01/07 04:59:12;;;;;;;29.80;11.27;;;-1.10;99.90;;;;;;4993416;28;20133;-69
2022/01/07 05:01:39;;;;;;;23.90;10.50;;;-1.00;99.90;;;;;;4993371;28;20573;-69
2022/01/07 05:04:06;;;;;;;31.47;10.53;;;-1.00;99.90;;;;;;4993349;28;20149;-69
2022/01/07 05:06:45;;;;;;;22.33;9.20;;;-1.00;99.90;;;;;;4993540;28;20133;-69
2022/01/07 05:09:12;;;;;;;25.07;10.70;;;-1.10;99.90;;;;;;4993534;28;20141;-69
2022/01/07 05:11:39;;;;;;;26.50;10.47;;;-1.10;99.90;;;;;;4993084;28;20469;-69
2022/01/07 05:14:08;;;;;;;26.77;9.97;;;-1.10;99.90;;;;;;4993113;28;20085;-69
2022/01/07 05:16:35;;;;;;;25.43;10.47;;;-1.10;99.90;;;;;;4993586;28;20137;-69
2022/01/07 05:19:02;;;;;;;31.53;10.70;;;-1.10;99.90;;;;;;4993581;28;20129;-69
2022/01/07 05:21:29;;;;;;;27.00;9.23;;;-1.10;99.90;;;;;;4985760;28;20065;-69
2022/01/07 05:23:56;;;;;;;24.87;8.73;;;-1.10;99.90;;;;;;4992981;28;20150;-69
2022/01/07 05:26:24;;;;;;;29.87;10.57;;;-1.10;99.90;;;;;;4993350;28;20125;-69
2022/01/07 05:28:51;;;;;;;27.17;10.33;;;-1.20;99.90;;;;;;4992820;28;20164;-69
2022/01/07 05:31:22;;;;;;;32.87;10.77;;;-1.20;99.90;;;;;;4992958;28;20410;-69
2022/01/07 05:33:49;;;;;;;26.23;9.70;;;-1.20;99.90;;;;;;4993195;28;20054;-69
2022/01/07 05:36:16;;;;;;;32.33;10.83;;;-1.20;99.90;;;;;;4992832;28;20138;-69
2022/01/07 05:38:43;;;;;;;32.40;11.47;;;-1.20;99.90;;;;;;4993040;28;20137;-69
2022/01/07 05:41:10;;;;;;;20.73;10.00;;;-1.20;99.90;;;;;;4992747;28;20084;-69
2022/01/07 05:43:37;;;;;;;27.80;10.43;;;-1.10;99.90;;;;;;4992547;28;20129;-69
2022/01/07 05:46:04;;;;;;;30.17;10.67;;;-1.10;99.90;;;;;;4992791;28;20133;-69
2022/01/07 05:48:33;;;;;;;26.47;10.27;;;-1.10;99.90;;;;;;4993073;28;20491;-69
2022/01/07 05:51:00;;;;;;;24.03;10.23;;;-1.10;99.90;;;;;;4997696;28;20060;-69
2022/01/07 05:53:27;;;;;;;31.47;10.77;;;-1.10;99.90;;;;;;4998530;28;20089;-69
2022/01/07 05:55:54;;;;;;;25.83;10.00;;;-1.10;99.90;;;;;;4997684;28;20089;-69
2022/01/07 05:58:21;;;;;;;24.10;9.73;;;-1.10;99.90;;;;;;4992950;28;20136;-69
2022/01/07 06:00:48;;;;;;;25.17;10.83;;;-1.10;99.90;;;;;;4992709;28;20133;-69
2022/01/07 06:03:15;;;;;;;34.80;10.47;;;-1.10;99.90;;;;;;4992466;28;20151;-69
2022/01/07 06:05:43;;;;;;;28.93;9.60;;;-1.10;99.90;;;;;;4991661;28;20081;-69
2022/01/07 06:08:10;;;;;;;28.50;12.00;;;-1.10;99.90;;;;;;4992491;28;20046;-69
2022/01/07 06:10:37;;;;;;;25.53;10.03;;;-1.10;99.90;;;;;;4992611;28;20054;-69
2022/01/07 06:13:04;;;;;;;29.33;10.97;;;-1.10;99.90;;;;;;4992333;28;20403;-69
2022/01/07 06:15:31;;;;;;;31.70;10.30;;;-1.10;99.90;;;;;;4992277;28;20133;-69
2022/01/07 06:17:59;;;;;;;24.73;10.60;;;-1.10;99.90;;;;;;4992337;28;20129;-69
2022/01/07 06:20:26;;;;;;;27.20;10.43;;;-1.10;99.90;;;;;;4992480;28;20058;-69
2022/01/07 06:22:55;;;;;;;35.07;11.53;;;-1.10;99.90;;;;;;4992347;28;20149;-69
2022/01/07 06:25:22;;;;;;;24.73;10.53;;;-1.10;99.90;;;;;;4992138;28;20057;-69
2022/01/07 06:27:49;;;;;;;27.03;10.40;;;-1.10;99.90;;;;;;4993226;28;20058;-69
2022/01/07 06:30:16;;;;;;;26.70;10.17;;;-1.10;99.90;;;;;;4993526;28;20470;-69
2022/01/07 06:32:43;;;;;;;32.73;11.20;;;-1.10;99.90;;;;;;4992786;28;20550;-69
2022/01/07 06:35:10;;;;;;;27.73;9.33;;;-1.10;99.90;;;;;;4992375;28;20054;-69
2022/01/07 06:37:37;;;;;;;22.93;9.83;;;-1.10;99.90;;;;;;4992032;28;20395;-69
2022/01/07 06:40:07;;;;;;;24.80;10.80;;;-1.10;99.90;;;;;;4992480;28;20136;-69
2022/01/07 06:42:35;;;;;;;22.57;9.67;;;-1.10;99.90;;;;;;4992025;28;20081;-69
2022/01/07 06:45:04;;;;;;;24.60;10.03;;;-1.10;99.90;;;;;;4991965;28;20140;-69
2022/01/07 06:47:31;;;;;;;26.73;10.03;;;-1.10;99.90;;;;;;4992465;28;20065;-69
2022/01/07 06:49:58;;;;;;;27.27;10.17;;;-1.10;99.90;;;;;;4992160;28;20478;-69
2022/01/07 06:52:25;;;;;;;27.70;10.13;;;-1.20;99.90;;;;;;4991932;28;20414;-69
2022/01/07 06:54:52;;;;;;;23.03;9.27;;;-1.20;99.90;;;;;;4991954;28;20078;-69
2022/01/07 06:57:21;;;;;;;28.67;10.43;;;-1.20;99.90;;;;;;4991771;28;20052;-69
2022/01/07 06:59:47;;;;;;;20.67;9.37;;;-1.20;99.90;;;;;;4992013;28;20358;-69
2022/01/07 07:02:15;;;;;;;25.23;10.27;;;-1.20;99.90;;;;;;4992003;28;20058;-69
2022/01/07 07:04:44;;;;;;;33.47;10.80;;;-1.20;99.90;;;;;;4991832;28;20054;-69
2022/01/07 07:07:11;;;;;;;24.07;9.70;;;-1.30;99.90;;;;;;5001980;28;20054;-69
2022/01/07 07:09:38;;;;;;;25.97;10.30;;;-1.30;99.90;;;;;;4992248;28;20081;-68
2022/01/07 07:12:05;;;;;;;25.63;9.03;;;-1.30;99.90;;;;;;4992136;28;20141;-69
2022/01/07 07:14:34;;;;;;;27.00;10.70;;;-1.30;99.90;;;;;;4991985;28;20157;-69
2022/01/07 07:17:01;;;;;;;28.17;10.13;;;-1.30;99.90;;;;;;4993742;28;20141;-68
2022/01/07 07:19:27;;;;;;;19.87;8.97;;;-1.30;99.90;;;;;;4995595;28;20125;-69
2022/01/07 07:21:54;;;;;;;26.47;9.37;;;-1.30;99.90;;;;;;4995576;28;20142;-69
2022/01/07 07:24:21;;;;;;;24.90;9.83;;;-1.30;99.90;;;;;;4995353;28;20060;-68
2022/01/07 07:26:48;;;;;;;27.30;10.17;;;-1.20;99.90;;;;;;4995256;28;20137;-68
2022/01/07 07:29:15;;;;;;;28.57;11.47;;;-1.20;99.90;;;;;;4995353;28;20137;-68
2022/01/07 07:31:48;;;;;;;24.23;11.10;;;-1.20;99.90;;;;;;4995324;28;20082;-69
2022/01/07 07:34:43;;;;;;;23.77;9.90;;;-1.10;99.90;;;;;;4995503;28;20097;-68
2022/01/07 07:37:10;;;;;;;22.43;9.77;;;-1.10;99.90;;;;;;4994942;28;20066;-68
2022/01/07 07:39:37;;;;;;;29.50;10.70;;;-1.10;99.90;;;;;;4995142;28;20050;-69
2022/01/07 07:42:05;;;;;;;29.93;10.47;;;-1.10;99.90;;;;;;4995048;28;20069;-68
2022/01/07 07:44:32;;;;;;;34.30;12.13;;;-1.10;99.90;;;;;;4994843;28;20129;-69
2022/01/07 07:47:02;;;;;;;35.03;12.23;;;-1.00;99.90;;;;;;4994743;28;20050;-69
2022/01/07 07:49:29;;;;;;;27.30;9.60;;;-1.00;99.90;;;;;;4994954;28;20507;-69
2022/01/07 07:51:56;;;;;;;26.27;9.77;;;-1.00;99.90;;;;;;4994806;28;20129;-69
2022/01/07 07:54:23;;;;;;;27.10;10.77;;;-1.00;99.90;;;;;;4994870;28;20137;-69
2022/01/07 07:56:50;;;;;;;22.20;9.93;;;-0.90;99.90;;;;;;4995164;28;20062;-69
2022/01/07 07:59:17;;;;;;;24.27;9.50;;;-0.90;99.90;;;;;;4995218;28;20136;-68
2022/01/07 08:01:44;;;;;;;29.97;11.57;;;-1.00;99.90;;;;;;4995044;28;20120;-68
2022/01/07 08:04:15;;;;;;;29.03;10.43;;;-0.90;99.90;;;;;;4995001;28;20150;-68
2022/01/07 08:06:42;;;;;;;27.07;11.17;;;-1.00;99.90;;;;;;4995044;28;20145;-68
2022/01/07 08:09:09;;;;;;;28.83;12.43;;;-0.90;99.90;;;;;;4995003;28;20141;-68
2022/01/07 08:11:48;;;;;;;30.37;10.87;;;-0.90;99.90;;;;;;4994762;28;20129;-68
2022/01/07 08:17:00;;;;;;;24.93;9.80;;;-0.80;99.90;;;;;;4994879;28;20054;-68
2022/01/07 08:19:28;;;;;;;27.67;11.97;;;-0.80;99.90;;;;;;4986668;28;20133;-68
2022/01/07 08:21:55;;;;;;;25.73;10.83;;;-0.80;99.90;;;;;;4994338;28;20577;-68
2022/01/07 08:24:22;;;;;;;32.87;13.10;;;-0.80;99.90;;;;;;4994269;28;20054;-68
2022/01/07 08:26:49;;;;;;;33.80;12.37;;;-0.80;99.90;;;;;;5001000;28;20130;-68
2022/01/07 08:29:17;;;;;;;26.63;11.30;;;-0.80;99.90;;;;;;4998318;28;20085;-68
2022/01/07 08:34:54;;;;;;;34.77;14.03;;;-0.70;99.90;;;;;;4957402;29;20039;-68
2022/01/07 08:37:23;;;;;;;29.20;12.53;;;-0.60;99.90;;;;;;4994042;28;20085;-69
2022/01/07 08:39:50;;;;;;;38.50;13.97;;;-0.60;99.90;;;;;;4999040;28;20051;-69
2022/01/07 08:42:18;;;;;;;34.50;13.80;;;-0.60;99.90;;;;;;4998370;28;20053;-69
2022/01/07 08:44:45;;;;;;;33.10;13.83;;;-0.50;99.90;;;;;;4998622;28;20054;-68
2022/01/07 08:47:12;;;;;;;28.77;12.23;;;-0.50;99.90;;;;;;4997671;28;20150;-68
2022/01/07 08:49:41;;;;;;;35.57;13.30;;;-0.40;99.90;;;;;;4997821;28;20133;-68
2022/01/07 08:52:07;;;;;;;34.73;13.30;;;-0.30;99.90;;;;;;4995573;28;20502;-68
2022/01/07 08:54:34;;;;;;;35.83;14.33;;;-0.30;99.90;;;;;;4994570;28;20061;-68
2022/01/07 08:57:01;;;;;;;33.90;13.33;;;-0.30;99.90;;;;;;4993786;28;20141;-68
2022/01/07 08:59:28;;;;;;;34.80;12.63;;;-0.20;99.90;;;;;;4993822;28;20133;-68
2022/01/07 09:01:55;;;;;;;33.53;14.17;;;-0.20;99.90;;;;;;4993520;28;20090;-68
2022/01/07 09:04:23;;;;;;;37.50;14.27;;;-0.20;99.90;;;;;;4993530;28;20136;-68
2022/01/07 09:06:51;;;;;;;30.10;14.10;;;-0.20;99.90;;;;;;4993421;28;20523;-68
2022/01/07 09:09:18;;;;;;;30.33;13.30;;;-0.20;99.90;;;;;;4993557;28;20130;-68
2022/01/07 09:11:45;;;;;;;32.80;12.87;;;-0.20;99.90;;;;;;4993712;28;20050;-68
2022/01/07 09:14:12;;;;;;;34.23;13.70;;;-0.20;99.90;;;;;;4993458;28;20058;-68
2022/01/07 09:16:38;;;;;;;28.87;12.67;;;-0.10;99.90;;;;;;4993365;28;20569;-68
2022/01/07 09:19:05;;;;;;;35.87;14.03;;;-0.10;99.90;;;;;;4993465;28;20133;-69
2022/01/07 09:21:32;;;;;;;35.20;12.30;;;-0.10;99.90;;;;;;4993593;28;20077;-68
2022/01/07 09:24:00;;;;;;;32.43;13.90;;;-0.10;99.90;;;;;;4993528;28;20574;-68
2022/01/07 09:26:27;;;;;;;37.90;13.40;;;-0.10;99.90;;;;;;4994633;28;20138;-68
2022/01/07 09:28:54;;;;;;;30.27;12.83;;;-0.10;99.90;;;;;;4995007;28;20050;-69
2022/01/07 09:31:21;;;;;;;32.03;12.27;;;-0.10;99.90;;;;;;4993732;28;20145;-68
2022/01/07 09:33:48;;;;;;;31.53;11.97;;;0.10;99.90;;;;;;4993644;28;20141;-68
2022/01/07 09:36:15;;;;;;;38.97;14.90;;;0.10;99.90;;;;;;4992941;28;20137;-68
2022/01/07 09:41:13;;;;;;;26.13;12.37;;;0.10;99.90;;;;;;4972367;28;20054;-66
2022/01/07 09:43:43;;;;;;;38.07;12.57;;;0.20;99.90;;;;;;4992978;28;20085;-67
2022/01/07 09:46:14;;;;;;;28.03;12.33;;;0.30;99.90;;;;;;4993086;28;20504;-66
2022/01/07 09:48:42;;;;;;;31.07;12.53;;;0.30;99.90;;;;;;4993126;28;20149;-66
2022/01/07 09:51:09;;;;;;;36.13;15.40;;;0.30;99.90;;;;;;4993182;28;20130;-66
2022/01/07 09:53:36;;;;;;;34.73;12.97;;;0.50;99.90;;;;;;4992730;28;20478;-67
2022/01/07 09:56:04;;;;;;;29.67;12.97;;;0.60;99.90;;;;;;4992699;28;20051;-67
2022/01/07 09:58:34;;;;;;;30.43;13.67;;;0.60;99.90;;;;;;4992749;28;20069;-67
2022/01/07 10:01:02;;;;;;;34.17;11.87;;;0.80;99.90;;;;;;4992840;28;20140;-66
2022/01/07 10:03:37;;;;;;;32.33;13.07;;;0.80;99.90;;;;;;4992900;28;20558;-66
2022/01/07 10:06:15;;;;;;;25.80;11.07;;;0.80;99.90;;;;;;4992378;28;20054;-67
2022/01/07 10:09:00;;;;;;;29.47;11.70;;;0.80;99.90;;;;;;4994444;28;20316;-66
2022/01/07 10:11:28;;;;;;;28.20;11.90;;;1.00;99.90;;;;;;4994113;28;20534;-66
2022/01/07 10:14:18;;;;;;;23.77;9.83;;;0.90;99.90;;;;;;4992716;28;20093;-65
2022/01/07 10:16:50;;;;;;;27.50;12.43;;;0.90;99.90;;;;;;4992341;28;20066;-66
2022/01/07 10:19:33;;;;;;;24.97;11.33;;;1.20;99.90;;;;;;4992440;28;20509;-66
2022/01/07 10:22:02;;;;;;;26.43;11.07;;;1.10;99.90;;;;;;4989452;28;20050;-64
2022/01/07 10:24:29;;;;;;;23.37;11.70;;;1.00;99.90;;;;;;4992265;28;20074;-64
2022/01/07 10:27:13;;;;;;;26.83;10.37;;;1.00;99.90;;;;;;4992064;28;20137;-65
2022/01/07 10:29:43;;;;;;;23.93;9.93;;;0.90;99.90;;;;;;4992010;28;20133;-65
2022/01/07 10:32:21;;;;;;;26.23;11.37;;;0.90;99.90;;;;;;4991969;28;20120;-64
2022/01/07 10:35:02;;;;;;;24.73;10.10;;;0.90;99.90;;;;;;4991955;28;20060;-65
2022/01/07 10:37:29;;;;;;;23.87;10.23;;;0.90;99.90;;;;;;4992511;28;20059;-65
2022/01/07 10:39:57;;;;;;;25.67;10.97;;;0.90;99.90;;;;;;4990937;28;20088;-64
2022/01/07 10:42:24;;;;;;;25.10;10.67;;;0.80;99.90;;;;;;4991969;28;20055;-65
2022/01/07 10:45:00;;;;;;;24.50;10.23;;;0.80;99.90;;;;;;4991850;28;20058;-64
2022/01/07 10:47:28;;;;;;;28.87;10.57;;;0.80;99.90;;;;;;4992058;28;20141;-65
2022/01/07 10:50:13;;;;;;;24.77;10.27;;;1.00;99.90;;;;;;4991858;28;20060;-65
2022/01/07 10:52:40;;;;;;;30.77;10.87;;;1.00;99.90;;;;;;4994349;28;20533;-64
2022/01/07 10:55:13;;;;;;;22.23;9.97;;;1.10;99.90;;;;;;4995887;28;20463;-65
2022/01/07 10:57:43;;;;;;;27.17;11.07;;;1.00;99.90;;;;;;4995843;28;20133;-65
2022/01/07 11:00:13;;;;;;;23.67;9.20;;;1.10;99.90;;;;;;4996029;28;20058;-65
2022/01/07 11:02:40;;;;;;;25.53;10.87;;;1.00;99.90;;;;;;4995681;28;20093;-65
2022/01/07 11:05:09;;;;;;;28.43;10.17;;;1.10;99.90;;;;;;4995200;28;20054;-65
2022/01/07 11:07:36;;;;;;;25.27;11.13;;;1.10;99.90;;;;;;4995873;28;20133;-65
2022/01/07 11:10:04;;;;;;;28.03;10.60;;;1.20;99.90;;;;;;4995785;28;20056;-65
2022/01/07 11:12:31;;;;;;;27.43;10.40;;;1.20;99.90;;;;;;4995445;28;20436;-65
2022/01/07 11:14:59;;;;;;;22.20;10.00;;;1.20;99.90;;;;;;4995040;28;20050;-65
2022/01/07 11:17:29;;;;;;;24.07;10.00;;;1.20;99.90;;;;;;4995394;28;20085;-65
2022/01/07 11:19:59;;;;;;;22.23;9.30;;;1.10;99.90;;;;;;4995244;28;20462;-65
2022/01/07 11:22:27;;;;;;;23.57;10.03;;;1.10;99.90;;;;;;4995342;28;20058;-63
2022/01/07 11:25:07;;;;;;;24.53;10.63;;;1.20;99.90;;;;;;4995145;28;20141;-65
2022/01/07 11:27:47;;;;;;;28.80;10.50;;;1.00;99.90;;;;;;4995185;28;20133;-65
2022/01/07 11:30:17;;;;;;;23.70;10.43;;;1.00;99.90;;;;;;4995396;28;20553;-64
2022/01/07 11:32:47;;;;;;;23.37;10.43;;;0.90;99.90;;;;;;4995308;28;20054;-64
2022/01/07 11:35:47;;;;;;;20.83;8.87;;;0.80;99.90;;;;;;4995030;28;20092;-64
2022/01/07 11:38:30;;;;;;;26.87;11.03;;;0.70;99.90;;;;;;4995098;28;20144;-64
2022/01/07 11:40:57;;;;;;;25.23;10.90;;;0.80;99.90;;;;;;4995783;28;20141;-63
2022/01/07 11:43:31;;;;;;;32.87;12.13;;;0.80;99.90;;;;;;4995108;28;20570;-64
2022/01/07 11:45:58;;;;;;;25.13;9.90;;;0.80;99.90;;;;;;4994818;28;20054;-63
2022/01/07 11:48:30;;;;;;;29.20;10.20;;;0.70;99.90;;;;;;4994881;28;20078;-64
2022/01/07 11:51:15;;;;;;;27.77;10.50;;;0.60;99.90;;;;;;4995238;28;20054;-64
2022/01/07 11:54:04;;;;;;;28.93;12.20;;;0.60;99.90;;;;;;4994999;28;20494;-64
2022/01/07 11:56:32;;;;;;;28.30;10.37;;;0.60;99.90;;;;;;4991655;28;20137;-63
2022/01/07 11:59:10;;;;;;;27.60;9.87;;;0.60;99.90;;;;;;4994714;28;20057;-62
2022/01/07 12:01:40;;;;;;;26.83;10.43;;;0.60;99.90;;;;;;4994683;28;20050;-63
2022/01/07 12:04:27;;;;;;;29.27;11.10;;;0.60;99.90;;;;;;4993218;28;20459;-65
2022/01/07 12:06:55;;;;;;;27.52;11.15;;;0.50;99.90;;;;;;4995063;28;20046;-64
2022/01/07 12:09:31;;;;;;;27.60;10.80;;;0.60;99.90;;;;;;4995520;28;20577;-64
2022/01/07 12:12:01;;;;;;;27.48;11.27;;;0.60;99.90;;;;;;4996043;28;20503;-64
2022/01/07 12:14:32;;;;;;;30.90;11.67;;;0.60;99.90;;;;;;4996222;28;20054;-63
2022/01/07 12:17:01;;;;;;;24.63;10.93;;;0.60;99.90;;;;;;4995185;28;20141;-64
2022/01/07 12:20:19;;;;;;;35.83;12.33;;;0.60;99.90;;;;;;4995199;28;20506;-64
2022/01/07 12:22:48;;;;;;;33.78;12.15;;;0.60;99.90;;;;;;4995157;28;20133;-64
2022/01/07 12:25:15;;;;;;;29.17;12.03;;;0.60;99.90;;;;;;4995241;28;20137;-64
2022/01/07 12:27:42;;;;;;;29.00;11.27;;;0.50;99.90;;;;;;4995151;28;20129;-64
2022/01/07 12:30:12;;;;;;;31.27;11.90;;;0.60;99.90;;;;;;4994539;28;20492;-64
2022/01/07 12:32:39;;;;;;;30.07;12.57;;;0.60;99.90;;;;;;4994323;28;20054;-63
2022/01/07 12:35:11;;;;;;;32.07;12.77;;;0.60;99.90;;;;;;4994091;28;20046;-64
2022/01/07 12:37:39;;;;;;;37.13;11.97;;;0.60;99.90;;;;;;4994319;28;20050;-64
2022/01/07 12:40:09;;;;;;;31.70;12.87;;;0.60;99.90;;;;;;4994415;28;20137;-63
2022/01/07 12:42:42;;;;;;;32.60;13.60;;;0.60;99.90;;;;;;4994290;28;20141;-62
2022/01/07 12:45:17;;;;;;;32.27;12.53;;;0.50;99.90;;;;;;4994053;28;20129;-65
2022/01/07 12:47:44;;;;;;;31.87;12.60;;;0.60;99.90;;;;;;4994677;28;20105;-64